createdAt,value
2019-05-06T00:01:34.122Z,99.90
2019-05-06T00:04:04.643Z,99.90
2019-05-06T00:06:34.414Z,99.90
2019-05-06T00:09:04.755Z,99.90
2019-05-06T00:11:34.694Z,99.90
2019-05-06T00:14:03.963Z,99.90
2019-05-06T00:16:34.461Z,99.90
2019-05-06T00:19:04.889Z,99.90
2019-05-06T00:21:35.273Z,99.90
2019-05-06T00:24:03.916Z,99.90
2019-05-06T00:26:57.412Z,99.90
2019-05-06T00:29:27.221Z,99.90
2019-05-06T00:31:57.444Z,99.90
2019-05-06T00:34:25.730Z,99.90
2019-05-06T00:36:54.501Z,99.90
2019-05-06T00:39:44.423Z,99.90
2019-05-06T00:42:31.255Z,99.90
2019-05-06T00:44:59.587Z,99.90
2019-05-06T00:47:28.614Z,99.90
2019-05-06T00:49:57.038Z,99.90
2019-05-06T00:52:26.074Z,99.90
2019-05-06T00:54:54.970Z,99.90
2019-05-06T00:57:43.769Z,99.90
2019-05-06T01:00:17.992Z,99.90
2019-05-06T01:02:46.216Z,99.90
2019-05-06T01:05:15.119Z,99.90
2019-05-06T01:07:43.973Z,99.90
2019-05-06T01:10:14.438Z,99.90
2019-05-06T01:12:49.420Z,99.90
2019-05-06T01:15:18.935Z,99.90
2019-05-06T01:17:47.464Z,99.90
2019-05-06T01:20:16.991Z,99.90
2019-05-06T01:22:45.128Z,99.90
2019-05-06T01:25:14.422Z,99.90
2019-05-06T01:27:44.431Z,99.90
2019-05-06T01:30:14.706Z,99.90
2019-05-06T01:32:43.676Z,99.90
2019-05-06T01:35:13.901Z,99.90
2019-05-06T01:37:44.357Z,99.90
2019-05-06T01:40:38.246Z,99.90
2019-05-06T01:43:17.255Z,99.90
2019-05-06T01:45:45.385Z,99.90
2019-05-06T01:48:15.707Z,99.90
2019-05-06T01:50:44.502Z,99.90
2019-05-06T01:53:14.050Z,99.90
2019-05-06T01:55:43.791Z,99.90
2019-05-06T01:58:12.111Z,99.90
2019-05-06T02:00:40.059Z,99.90
2019-05-06T02:03:08.595Z,99.90
2019-05-06T02:05:36.658Z,99.90
2019-05-06T02:08:04.750Z,99.90
2019-05-06T02:10:34.964Z,99.90
2019-05-06T02:13:03.878Z,99.90
2019-05-06T02:15:31.841Z,99.90
2019-05-06T02:18:00.104Z,99.90
2019-05-06T02:20:28.031Z,99.90
2019-05-06T02:23:10.365Z,99.90
2019-05-06T02:25:44.573Z,99.90
2019-05-06T02:28:14.221Z,99.90
2019-05-06T02:31:05.435Z,99.90
2019-05-06T02:33:48.382Z,99.90
2019-05-06T02:36:38.546Z,99.90
2019-05-06T02:39:06.869Z,99.90
2019-05-06T02:41:34.770Z,99.90
2019-05-06T02:44:03.517Z,99.90
2019-05-06T02:46:33.825Z,99.90
2019-05-06T02:49:18.153Z,99.90
2019-05-06T02:51:47.505Z,99.90
2019-05-06T02:54:15.754Z,99.90
2019-05-06T02:56:43.799Z,99.90
2019-05-06T02:59:12.921Z,99.90
2019-05-06T03:01:43.273Z,99.90
2019-05-06T03:04:13.203Z,99.90
2019-05-06T03:06:44.436Z,99.90
2019-05-06T03:09:13.592Z,99.90
2019-05-06T03:11:43.877Z,99.90
2019-05-06T03:14:13.876Z,99.90
2019-05-06T03:16:43.978Z,99.90
2019-05-06T03:19:13.376Z,99.90
2019-05-06T03:22:03.801Z,99.90
2019-05-06T03:24:44.075Z,99.90
2019-05-06T03:27:14.330Z,99.90
2019-05-06T03:29:44.570Z,99.90
2019-05-06T03:32:16.477Z,99.90
2019-05-06T03:35:01.093Z,99.90
2019-05-06T03:37:16.963Z,99.90
2019-05-06T03:39:43.424Z,99.90
2019-05-06T03:42:13.692Z,99.90
2019-05-06T03:44:44.566Z,99.90
2019-05-06T03:47:50.382Z,99.90
2019-05-06T03:50:18.433Z,99.90
2019-05-06T03:52:46.403Z,99.90
2019-05-06T03:55:14.384Z,99.90
2019-05-06T03:57:43.375Z,99.90
2019-05-06T04:00:16.010Z,99.90
2019-05-06T04:02:44.155Z,99.90
2019-05-06T04:05:13.266Z,99.90
2019-05-06T04:07:45.444Z,99.90
2019-05-06T04:10:13.670Z,99.90
2019-05-06T04:12:43.893Z,99.90
2019-05-06T04:15:14.082Z,99.90
2019-05-06T04:17:48.807Z,99.90
2019-05-06T04:20:36.463Z,99.90
2019-05-06T04:23:36.551Z,99.90
2019-05-06T04:26:25.574Z,99.90
2019-05-06T04:28:53.679Z,99.90
2019-05-06T04:31:22.862Z,99.90
2019-05-06T04:34:08.501Z,99.90
2019-05-06T04:36:23.569Z,99.90
2019-05-06T04:38:53.726Z,99.90
2019-05-06T04:41:23.156Z,99.90
2019-05-06T04:43:53.351Z,99.90
2019-05-06T04:46:23.607Z,99.90
2019-05-06T04:48:53.878Z,99.90
2019-05-06T04:51:24.409Z,99.90
2019-05-06T04:53:53.742Z,99.90
2019-05-06T04:56:23.726Z,99.90
2019-05-06T04:58:53.847Z,99.90
2019-05-06T05:01:23.153Z,99.90
2019-05-06T05:03:53.824Z,99.90
2019-05-06T05:06:23.142Z,99.90
2019-05-06T05:08:53.217Z,99.90
2019-05-06T05:11:33.741Z,99.90
2019-05-06T05:14:14.486Z,99.90
2019-05-06T05:16:54.488Z,99.90
2019-05-06T05:19:23.104Z,99.90
2019-05-06T05:21:54.959Z,99.90
2019-05-06T05:24:23.992Z,99.90
2019-05-06T05:26:52.317Z,99.90
2019-05-06T05:29:20.407Z,99.90
2019-05-06T05:31:48.685Z,99.90
2019-05-06T05:34:16.611Z,99.90
2019-05-06T05:36:44.596Z,99.90
2019-05-06T05:39:13.133Z,99.90
2019-05-06T05:41:42.882Z,99.90
2019-05-06T05:44:16.140Z,99.90
2019-05-06T05:46:44.287Z,99.90
2019-05-06T05:49:22.589Z,99.90
2019-05-06T05:51:52.058Z,99.90
2019-05-06T05:54:20.060Z,99.90
2019-05-06T05:56:48.055Z,99.90
2019-05-06T05:59:16.234Z,99.90
2019-05-06T06:01:44.364Z,99.90
2019-05-06T06:04:13.020Z,99.90
2019-05-06T06:06:42.372Z,99.90
2019-05-06T06:09:12.693Z,99.90
2019-05-06T06:11:53.262Z,99.90
2019-05-06T06:14:55.740Z,99.90
2019-05-06T06:17:36.215Z,99.90
2019-05-06T06:20:24.857Z,99.90
2019-05-06T06:22:54.752Z,99.90
2019-05-06T06:25:23.592Z,99.90
2019-05-06T06:27:52.373Z,99.90
2019-05-06T06:30:29.065Z,99.90
2019-05-06T06:32:56.962Z,99.90
2019-05-06T06:35:51.982Z,99.90
2019-05-06T06:38:24.918Z,99.90
2019-05-06T06:40:55.604Z,99.90
2019-05-06T06:43:25.042Z,99.60
2019-05-06T06:45:53.196Z,95.00
2019-05-06T06:48:22.888Z,95.20
2019-05-06T06:50:52.266Z,96.50
2019-05-06T06:53:21.837Z,93.10
2019-05-06T06:55:52.367Z,91.00
2019-05-06T06:58:35.324Z,91.60
2019-05-06T07:01:29.586Z,89.70
2019-05-06T07:04:10.519Z,83.10
2019-05-06T07:06:46.515Z,79.00
2019-05-06T07:09:16.199Z,82.50
2019-05-06T07:11:44.213Z,85.00
2019-05-06T07:14:13.730Z,85.10
2019-05-06T07:16:43.065Z,87.90
2019-05-06T07:19:13.426Z,95.30
2019-05-06T07:21:52.318Z,99.90
2019-05-06T07:24:22.679Z,99.90
2019-05-06T07:26:55.051Z,99.90
2019-05-06T07:29:26.279Z,99.90
2019-05-06T07:31:53.492Z,99.90
2019-05-06T07:34:22.870Z,99.90
2019-05-06T07:36:52.449Z,99.10
2019-05-06T07:39:23.776Z,95.90
2019-05-06T07:41:56.999Z,96.90
2019-05-06T07:44:37.356Z,94.90
2019-05-06T07:47:24.042Z,94.60
2019-05-06T07:49:53.150Z,92.80
2019-05-06T07:52:23.066Z,89.70
2019-05-06T07:54:53.324Z,88.20
2019-05-06T07:57:22.065Z,83.60
2019-05-06T07:59:52.372Z,79.60
2019-05-06T08:02:22.619Z,77.60
2019-05-06T08:04:52.966Z,80.10
2019-05-06T08:07:22.285Z,84.40
2019-05-06T08:09:52.841Z,82.70
2019-05-06T08:12:22.310Z,78.30
2019-05-06T08:14:52.406Z,76.20
2019-05-06T08:17:26.727Z,73.40
2019-05-06T08:19:54.786Z,70.00
2019-05-06T08:22:42.402Z,66.20
2019-05-06T08:25:13.302Z,65.30
2019-05-06T08:27:42.617Z,65.50
2019-05-06T08:30:12.890Z,63.00
2019-05-06T08:32:42.486Z,60.50
2019-05-06T08:35:13.347Z,59.50
2019-05-06T08:37:42.635Z,60.70
2019-05-06T08:40:11.983Z,53.70
2019-05-06T08:42:42.635Z,56.20
2019-05-06T08:45:12.822Z,53.30
2019-05-06T08:47:42.628Z,52.00
2019-05-06T08:50:32.519Z,38.60
2019-05-06T08:53:15.059Z,47.20
2019-05-06T08:55:44.387Z,45.10
2019-05-06T08:58:13.934Z,40.30
2019-05-06T09:01:05.365Z,35.60
2019-05-06T09:03:33.360Z,30.90
2019-05-06T09:06:03.131Z,37.00
2019-05-06T09:08:32.433Z,33.40
2019-05-06T09:11:02.959Z,36.90
2019-05-06T09:13:32.656Z,27.80
2019-05-06T09:16:02.486Z,29.30
2019-05-06T09:18:32.925Z,32.30
2019-05-06T09:21:02.966Z,36.00
2019-05-06T09:23:32.700Z,36.30
2019-05-06T09:26:02.672Z,37.40
2019-05-06T09:28:45.865Z,40.90
2019-05-06T09:31:28.205Z,42.50
2019-05-06T09:34:05.065Z,41.70
2019-05-06T09:36:43.918Z,42.30
2019-05-06T09:39:05.409Z,37.00
2019-05-06T09:41:34.040Z,33.30
2019-05-06T09:44:03.158Z,32.80
2019-05-06T09:46:33.475Z,31.60
2019-05-06T09:49:18.457Z,30.60
2019-05-06T09:51:46.499Z,29.40
2019-05-06T09:54:34.204Z,26.70
2019-05-06T09:57:06.072Z,25.30
2019-05-06T09:59:34.020Z,25.50
2019-05-06T10:02:02.159Z,25.40
2019-05-06T10:04:32.376Z,26.80
2019-05-06T10:07:02.527Z,29.00
2019-05-06T10:09:32.669Z,29.60
2019-05-06T10:12:02.068Z,28.20
2019-05-06T10:14:32.179Z,28.20
2019-05-06T10:17:04.202Z,27.80
2019-05-06T10:19:32.042Z,26.90
2019-05-06T10:22:00.167Z,25.70
2019-05-06T10:24:28.203Z,24.20
2019-05-06T10:26:58.300Z,23.70
2019-05-06T10:29:37.943Z,23.50
2019-05-06T10:32:22.488Z,22.80
2019-05-06T10:34:52.613Z,23.70
2019-05-06T10:37:38.352Z,21.60
2019-05-06T10:40:15.570Z,19.10
2019-05-06T10:42:54.213Z,18.90
2019-05-06T10:45:32.180Z,20.50
2019-05-06T10:48:02.179Z,21.90
2019-05-06T10:50:33.678Z,21.40
2019-05-06T10:53:18.951Z,21.00
2019-05-06T10:55:54.953Z,22.40
2019-05-06T10:58:23.018Z,22.40
2019-05-06T11:00:58.078Z,20.90
2019-05-06T11:03:27.710Z,20.50
2019-05-06T11:05:56.233Z,18.80
2019-05-06T11:08:24.372Z,18.50
2019-05-06T11:10:53.541Z,19.10
2019-05-06T11:13:24.463Z,18.60
2019-05-06T11:15:55.547Z,19.40
2019-05-06T11:18:23.496Z,21.40
2019-05-06T11:20:55.822Z,19.60
2019-05-06T11:23:22.219Z,19.90
2019-05-06T11:25:52.478Z,18.60
2019-05-06T11:28:42.748Z,19.70
2019-05-06T11:31:32.948Z,19.80
2019-05-06T11:34:21.992Z,17.90
2019-05-06T11:37:08.298Z,18.50
2019-05-06T11:39:36.261Z,18.50
2019-05-06T11:42:23.846Z,18.60
2019-05-06T11:44:34.141Z,19.10
2019-05-06T11:47:03.363Z,17.50
2019-05-06T11:49:32.666Z,18.60
2019-05-06T11:52:02.400Z,18.50
2019-05-06T11:54:33.573Z,16.40
2019-05-06T11:57:02.904Z,17.40
2019-05-06T11:59:31.276Z,16.80
2019-05-06T12:02:02.635Z,16.90
2019-05-06T12:04:32.887Z,17.90
2019-05-06T12:07:10.297Z,17.90
2019-05-06T12:09:33.027Z,17.40
2019-05-06T12:12:03.249Z,18.00
2019-05-06T12:14:31.945Z,17.60
2019-05-06T12:17:02.225Z,16.50
2019-05-06T12:19:32.446Z,18.10
2019-05-06T12:22:00.699Z,20.70
2019-05-06T12:24:29.181Z,18.50
2019-05-06T12:26:57.515Z,17.60
2019-05-06T12:29:25.732Z,18.40
2019-05-06T12:32:08.935Z,17.30
2019-05-06T12:34:36.848Z,17.50
2019-05-06T12:37:07.080Z,17.20
2019-05-06T12:39:35.386Z,17.60
2019-05-06T12:42:16.224Z,15.90
2019-05-06T12:45:13.045Z,16.30
2019-05-06T12:47:54.760Z,16.30
2019-05-06T12:50:23.020Z,16.40
2019-05-06T12:52:52.531Z,16.40
2019-05-06T12:55:25.223Z,17.40
2019-05-06T12:57:53.275Z,16.60
2019-05-06T13:00:23.587Z,17.20
2019-05-06T13:02:53.105Z,16.70
2019-05-06T13:05:21.506Z,17.50
2019-05-06T13:07:49.543Z,16.40
2019-05-06T13:10:23.140Z,16.30
2019-05-06T13:13:01.463Z,14.40
2019-05-06T13:15:29.487Z,15.60
2019-05-06T13:17:57.755Z,14.30
2019-05-06T13:20:25.677Z,15.60
2019-05-06T13:23:20.699Z,16.20
2019-05-06T13:25:45.485Z,16.60
2019-05-06T13:28:15.945Z,17.00
2019-05-06T13:30:44.468Z,17.60
2019-05-06T13:33:34.142Z,17.80
2019-05-06T13:36:02.427Z,18.10
2019-05-06T13:38:32.114Z,17.70
2019-05-06T13:41:00.318Z,17.70
2019-05-06T13:43:36.679Z,18.20
2019-05-06T13:46:12.912Z,17.60
2019-05-06T13:48:46.120Z,18.10
2019-05-06T13:51:16.908Z,18.80
2019-05-06T13:53:46.335Z,18.60
2019-05-06T13:56:14.520Z,19.30
2019-05-06T13:58:43.219Z,17.60
2019-05-06T14:01:15.297Z,16.50
2019-05-06T14:03:43.412Z,16.50
2019-05-06T14:06:12.256Z,16.60
2019-05-06T14:08:42.299Z,16.10
2019-05-06T14:11:10.364Z,15.90
2019-05-06T14:13:38.488Z,16.00
2019-05-06T14:16:06.455Z,16.20
2019-05-06T14:18:37.639Z,16.30
2019-05-06T14:21:05.044Z,16.40
2019-05-06T14:23:33.211Z,16.40
2019-05-06T14:26:23.096Z,16.10
2019-05-06T14:28:58.606Z,16.10
2019-05-06T14:31:29.281Z,15.90
2019-05-06T14:33:57.350Z,16.30
2019-05-06T14:36:27.502Z,16.90
2019-05-06T14:38:55.344Z,17.00
2019-05-06T14:41:27.215Z,16.00
2019-05-06T14:43:55.410Z,16.40
2019-05-06T14:46:24.152Z,16.40
2019-05-06T14:48:53.390Z,16.20
2019-05-06T14:51:22.300Z,16.40
2019-05-06T14:53:53.040Z,16.80
2019-05-06T14:56:55.276Z,16.60
2019-05-06T14:59:23.599Z,16.60
2019-05-06T15:01:53.673Z,16.90
2019-05-06T15:04:22.985Z,16.80
2019-05-06T15:06:53.004Z,18.60
2019-05-06T15:09:22.562Z,16.60
2019-05-06T15:11:50.904Z,16.90
2019-05-06T15:14:19.236Z,16.60
2019-05-06T15:16:47.207Z,16.80
2019-05-06T15:19:15.778Z,16.90
2019-05-06T15:21:43.783Z,16.70
2019-05-06T15:24:14.678Z,17.00
2019-05-06T15:26:43.213Z,16.90
2019-05-06T15:29:12.629Z,17.30
2019-05-06T15:31:59.080Z,16.80
2019-05-06T15:34:35.109Z,16.60
2019-05-06T15:37:13.285Z,16.50
2019-05-06T15:39:43.786Z,16.90
2019-05-06T15:42:12.809Z,16.70
2019-05-06T15:44:42.460Z,17.50
2019-05-06T15:47:13.121Z,17.10
2019-05-06T15:49:41.976Z,16.40
2019-05-06T15:52:12.322Z,16.90
2019-05-06T15:54:42.879Z,17.10
2019-05-06T15:57:10.580Z,17.40
2019-05-06T15:59:41.423Z,17.30
2019-05-06T16:02:09.178Z,17.30
2019-05-06T16:04:37.151Z,16.30
2019-05-06T16:07:05.119Z,17.00
2019-05-06T16:09:33.511Z,17.00
2019-05-06T16:12:03.117Z,16.70
2019-05-06T16:14:34.548Z,16.50
2019-05-06T16:17:01.689Z,16.60
2019-05-06T16:19:29.794Z,17.10
2019-05-06T16:21:57.905Z,17.00
2019-05-06T16:24:35.106Z,17.50
2019-05-06T16:27:03.157Z,17.80
2019-05-06T16:29:37.196Z,17.70
2019-05-06T16:32:08.700Z,17.50
2019-05-06T16:34:36.971Z,18.80
2019-05-06T16:37:05.113Z,18.60
2019-05-06T16:39:33.590Z,18.30
2019-05-06T16:42:03.533Z,17.90
2019-05-06T16:44:31.591Z,18.20
2019-05-06T16:46:59.699Z,17.90
2019-05-06T16:49:27.938Z,18.00
2019-05-06T16:51:56.627Z,17.50
2019-05-06T16:54:27.849Z,17.90
2019-05-06T16:57:02.333Z,17.40
2019-05-06T16:59:33.219Z,18.40
2019-05-06T17:02:04.102Z,17.90
2019-05-06T17:04:44.728Z,18.10
2019-05-06T17:07:13.070Z,17.70
2019-05-06T17:09:42.962Z,18.40
2019-05-06T17:12:12.819Z,16.20
2019-05-06T17:14:42.832Z,16.60
2019-05-06T17:17:11.234Z,16.20
2019-05-06T17:19:42.046Z,16.00
2019-05-06T17:22:12.228Z,16.00
2019-05-06T17:24:42.186Z,16.70
2019-05-06T17:27:12.105Z,16.20
2019-05-06T17:30:00.341Z,16.40
2019-05-06T17:32:42.018Z,16.60
2019-05-06T17:35:12.598Z,16.30
2019-05-06T17:38:13.325Z,16.10
2019-05-06T17:40:42.881Z,16.30
2019-05-06T17:43:12.971Z,16.90
2019-05-06T17:46:01.056Z,18.10
2019-05-06T17:48:47.305Z,16.50
2019-05-06T17:51:22.414Z,17.00
2019-05-06T17:53:52.673Z,17.20
2019-05-06T17:56:22.279Z,17.40
2019-05-06T17:58:53.268Z,17.60
2019-05-06T18:01:26.556Z,18.00
2019-05-06T18:03:54.657Z,17.80
2019-05-06T18:06:23.014Z,19.20
2019-05-06T18:08:52.803Z,20.90
2019-05-06T18:11:22.413Z,20.00
2019-05-06T18:13:52.119Z,21.10
2019-05-06T18:16:22.249Z,21.30
2019-05-06T18:18:52.354Z,22.40
2019-05-06T18:21:22.782Z,25.10
2019-05-06T18:23:52.297Z,23.60
2019-05-06T18:26:22.787Z,25.50
2019-05-06T18:28:52.607Z,24.10
2019-05-06T18:31:22.123Z,26.10
2019-05-06T18:33:52.613Z,26.30
2019-05-06T18:36:22.665Z,26.20
2019-05-06T18:38:52.493Z,28.00
2019-05-06T18:41:20.714Z,28.60
2019-05-06T18:43:48.785Z,28.90
2019-05-06T18:46:16.889Z,29.30
2019-05-06T18:48:44.871Z,29.80
2019-05-06T18:51:13.005Z,31.30
2019-05-06T18:53:42.263Z,31.10
2019-05-06T18:56:12.553Z,30.00
2019-05-06T18:58:42.751Z,29.90
2019-05-06T19:01:13.150Z,30.00
2019-05-06T19:04:00.376Z,30.60
2019-05-06T19:06:28.818Z,29.30
2019-05-06T19:09:03.792Z,28.80
2019-05-06T19:11:34.690Z,28.80
2019-05-06T19:14:03.904Z,28.70
2019-05-06T19:16:48.323Z,29.80
2019-05-06T19:19:05.743Z,30.20
2019-05-06T19:21:32.788Z,30.00
2019-05-06T19:24:02.780Z,29.60
2019-05-06T19:26:32.325Z,29.40
2019-05-06T19:29:04.383Z,29.80
2019-05-06T19:31:32.600Z,29.80
2019-05-06T19:34:03.181Z,32.50
2019-05-06T19:36:34.181Z,33.80
2019-05-06T19:39:02.236Z,31.80
2019-05-06T19:41:33.172Z,32.00
2019-05-06T19:44:02.193Z,32.40
2019-05-06T19:46:32.566Z,32.30
2019-05-06T19:49:01.834Z,35.70
2019-05-06T19:51:32.856Z,39.30
2019-05-06T19:54:02.255Z,41.20
2019-05-06T19:56:31.212Z,45.60
2019-05-06T19:58:59.502Z,47.00
2019-05-06T20:01:28.278Z,50.60
2019-05-06T20:03:56.565Z,53.50
2019-05-06T20:06:39.964Z,55.10
2019-05-06T20:09:47.292Z,56.30
2019-05-06T20:12:32.786Z,60.50
2019-05-06T20:15:19.702Z,60.10
2019-05-06T20:17:47.943Z,60.40
2019-05-06T20:20:15.935Z,58.00
2019-05-06T20:22:44.032Z,57.90
2019-05-06T20:25:12.549Z,55.10
2019-05-06T20:27:42.111Z,48.60
2019-05-06T20:30:10.442Z,50.70
2019-05-06T20:32:38.770Z,49.50
2019-05-06T20:35:08.096Z,46.10
2019-05-06T20:37:36.420Z,44.30
2019-05-06T20:40:05.412Z,52.10
2019-05-06T20:42:33.559Z,55.60
2019-05-06T20:45:02.217Z,60.40
2019-05-06T20:47:32.030Z,66.20
2019-05-06T20:50:02.338Z,67.50
2019-05-06T20:52:31.150Z,73.00
2019-05-06T20:55:00.369Z,81.90
2019-05-06T20:57:28.407Z,88.00
2019-05-06T20:59:56.493Z,90.10
2019-05-06T21:02:25.888Z,88.40
2019-05-06T21:04:54.194Z,82.50
2019-05-06T21:07:23.186Z,85.00
2019-05-06T21:09:52.517Z,90.50
2019-05-06T21:12:21.847Z,90.70
2019-05-06T21:14:50.019Z,92.80
2019-05-06T21:17:18.095Z,93.80
2019-05-06T21:19:46.143Z,98.30
2019-05-06T21:22:14.247Z,99.90
2019-05-06T21:24:43.241Z,99.90
2019-05-06T21:27:12.394Z,99.90
2019-05-06T21:29:42.008Z,99.90
2019-05-06T21:32:10.149Z,99.90
2019-05-06T21:34:38.363Z,99.90
2019-05-06T21:37:07.658Z,99.90
2019-05-06T21:39:36.012Z,99.90
2019-05-06T21:42:04.076Z,99.90
2019-05-06T21:44:32.659Z,99.90
2019-05-06T21:47:02.947Z,99.90
2019-05-06T21:49:32.646Z,99.90
2019-05-06T21:52:02.086Z,99.90
2019-05-06T21:54:32.533Z,99.90
2019-05-06T21:57:02.706Z,99.90
2019-05-06T21:59:30.414Z,99.90
2019-05-06T22:01:58.927Z,99.90
2019-05-06T22:04:26.956Z,99.90
2019-05-06T22:06:54.925Z,99.90
2019-05-06T22:09:23.114Z,99.90
2019-05-06T22:11:52.941Z,99.90
2019-05-06T22:14:23.616Z,99.90
2019-05-06T22:16:51.838Z,99.90
2019-05-06T22:19:19.776Z,99.90
2019-05-06T22:22:12.025Z,99.90
2019-05-06T22:24:47.169Z,99.90
2019-05-06T22:27:15.878Z,99.90
2019-05-06T22:29:43.909Z,99.90
2019-05-06T22:32:14.902Z,99.90
2019-05-06T22:34:42.644Z,99.90
2019-05-06T22:37:12.546Z,99.90
2019-05-06T22:39:43.275Z,99.90
2019-05-06T22:42:10.866Z,99.90
2019-05-06T22:44:38.890Z,99.90
2019-05-06T22:47:06.902Z,99.90
2019-05-06T22:49:35.353Z,99.90
2019-05-06T22:52:03.859Z,99.90
2019-05-06T22:54:32.123Z,99.90
2019-05-06T22:57:02.333Z,99.90
2019-05-06T22:59:33.060Z,99.90
2019-05-06T23:02:08.877Z,99.90
2019-05-06T23:04:37.860Z,99.90
2019-05-06T23:07:05.999Z,99.90
2019-05-06T23:09:34.471Z,99.90
2019-05-06T23:12:04.777Z,99.90
2019-05-06T23:14:36.873Z,99.90
2019-05-06T23:17:03.449Z,99.90
2019-05-06T23:19:31.854Z,99.90
2019-05-06T23:22:03.979Z,99.90
2019-05-06T23:24:32.023Z,99.90
2019-05-06T23:27:01.918Z,99.90
2019-05-06T23:29:30.119Z,99.90
2019-05-06T23:31:58.226Z,99.90
2019-05-06T23:34:26.251Z,99.90
2019-05-06T23:37:17.241Z,99.90
2019-05-06T23:40:42.762Z,99.90
2019-05-06T23:44:05.777Z,99.90
2019-05-06T23:47:29.481Z,99.90
2019-05-06T23:50:52.714Z,99.90
2019-05-06T23:54:16.109Z,99.90
2019-05-06T23:56:45.098Z,99.90
2019-05-06T23:59:15.732Z,99.90
